createdAt,value
2022-12-28T00:01:14.178Z,102272.97
2022-12-28T00:06:11.956Z,102217.22
2022-12-28T00:11:18.667Z,102295.84
2022-12-28T00:16:26.645Z,102277.78
2022-12-28T00:21:24.598Z,102231.22
2022-12-28T00:26:21.632Z,102312.66
2022-12-28T00:31:18.503Z,102279.75
2022-12-28T00:36:16.573Z,102272.75
2022-12-28T00:41:14.233Z,102290.59
2022-12-28T00:46:13.098Z,102233.63
2022-12-28T00:51:13.348Z,102304.13
2022-12-28T00:56:12.846Z,102331.28
2022-12-28T01:01:14.264Z,102341.94
2022-12-28T01:06:13.120Z,102327.13
2022-12-28T01:11:13.693Z,102284.03
2022-12-28T01:16:12.814Z,102294.66
2022-12-28T01:21:13.161Z,102344.13
2022-12-28T01:26:12.976Z,102360.88
2022-12-28T01:31:13.070Z,102359.28
2022-12-28T01:36:14.393Z,102345.81
2022-12-28T01:41:14.597Z,102370.53
2022-12-28T01:46:16.199Z,102380.22
2022-12-28T01:51:14.240Z,102381.13
2022-12-28T01:56:11.429Z,102302.59
2022-12-28T02:01:11.108Z,102371.72
2022-12-28T02:06:12.396Z,102382.50
2022-12-28T02:11:13.991Z,102382.75
2022-12-28T02:16:12.346Z,102383.00
2022-12-28T02:21:22.293Z,102423.50
2022-12-28T02:26:44.909Z,102420.44
2022-12-28T02:31:47.437Z,102399.72
2022-12-28T02:36:52.605Z,102390.75
2022-12-28T02:41:51.634Z,102413.56
2022-12-28T02:47:07.191Z,102402.50
2022-12-28T02:52:16.798Z,102427.00
2022-12-28T02:57:30.965Z,102383.91
2022-12-28T03:02:44.992Z,102347.72
2022-12-28T03:08:07.008Z,102432.75
2022-12-28T03:13:27.997Z,102435.47
2022-12-28T03:18:46.611Z,102420.06
2022-12-28T03:24:04.764Z,102437.38
2022-12-28T03:29:22.572Z,102447.78
2022-12-28T03:34:20.149Z,102401.94
2022-12-28T03:39:30.204Z,102472.44
2022-12-28T03:44:34.438Z,102414.56
2022-12-28T03:49:32.530Z,102444.22
2022-12-28T03:54:29.428Z,102488.59
2022-12-28T03:59:27.306Z,102502.59
2022-12-28T04:04:25.260Z,102500.03
2022-12-28T04:09:23.048Z,102507.91
2022-12-28T04:14:19.958Z,102509.69
2022-12-28T04:19:18.308Z,102512.22
2022-12-28T04:24:16.042Z,102508.75
2022-12-28T04:29:13.953Z,102472.38
2022-12-28T04:34:26.328Z,102521.91
2022-12-28T04:39:54.328Z,102486.34
2022-12-28T04:44:52.160Z,102550.59
2022-12-28T04:49:49.849Z,102558.41
2022-12-28T04:54:46.748Z,102498.47
2022-12-28T04:59:43.647Z,102547.19
2022-12-28T05:04:41.401Z,102494.31
2022-12-28T05:09:38.243Z,102564.59
2022-12-28T05:14:37.152Z,102556.81
2022-12-28T05:19:34.321Z,102482.13
2022-12-28T05:24:31.990Z,102543.72
2022-12-28T05:29:28.973Z,102577.63
2022-12-28T05:34:25.927Z,102529.91
2022-12-28T05:39:22.937Z,102515.09
2022-12-28T05:44:20.555Z,102566.31
2022-12-28T05:49:17.458Z,102470.00
2022-12-28T05:54:14.391Z,102555.94
2022-12-28T05:59:12.741Z,102578.56
2022-12-28T06:04:15.127Z,102542.13
2022-12-28T06:09:12.124Z,102589.91
2022-12-28T06:14:10.812Z,102569.03
2022-12-28T06:19:09.188Z,102507.41
2022-12-28T06:24:07.991Z,102555.97
2022-12-28T06:29:05.357Z,102610.69
2022-12-28T06:34:03.791Z,102562.06
2022-12-28T06:39:02.377Z,102621.13
2022-12-28T06:44:00.184Z,102579.31
2022-12-28T06:48:57.920Z,102565.38
2022-12-28T06:54:02.641Z,102631.28
2022-12-28T06:59:04.277Z,102581.69
2022-12-28T07:04:03.058Z,102627.66
2022-12-28T07:09:01.480Z,102578.97
2022-12-28T07:13:58.997Z,102520.69
2022-12-28T07:18:58.993Z,102600.28
2022-12-28T07:23:57.455Z,102641.84
2022-12-28T07:28:56.581Z,102636.50
2022-12-28T07:33:55.458Z,102662.38
2022-12-28T07:38:53.537Z,102653.47
2022-12-28T07:43:50.990Z,102658.38
2022-12-28T07:48:48.547Z,102639.16
2022-12-28T07:53:47.983Z,102661.50
2022-12-28T08:03:46.253Z,102595.06
2022-12-28T08:08:44.974Z,102595.63
2022-12-28T08:13:43.742Z,102607.50
2022-12-28T08:18:42.080Z,102656.75
2022-12-28T08:23:41.990Z,102636.56
2022-12-28T08:28:41.348Z,102658.81
2022-12-28T08:33:38.474Z,102629.91
2022-12-28T08:38:39.637Z,102657.22
2022-12-28T08:43:37.110Z,102652.94
2022-12-28T08:48:36.989Z,102645.72
2022-12-28T08:53:34.319Z,102641.19
2022-12-28T08:58:31.877Z,102601.97
2022-12-28T09:03:28.628Z,102607.47
2022-12-28T09:08:25.655Z,102605.28
2022-12-28T09:13:22.496Z,102584.22
2022-12-28T09:18:23.356Z,102580.28
2022-12-28T09:23:21.234Z,102519.50
2022-12-28T09:28:19.075Z,102583.97
2022-12-28T09:33:40.841Z,102537.03
2022-12-28T09:38:50.102Z,102491.69
2022-12-28T09:43:47.707Z,102564.03
2022-12-28T09:48:48.230Z,102567.91
2022-12-28T09:53:48.190Z,102580.56
2022-12-28T09:58:48.035Z,102488.31
2022-12-28T10:03:46.700Z,102527.47
2022-12-28T10:08:46.992Z,102567.34
2022-12-28T10:13:59.713Z,102533.22
2022-12-28T10:18:57.466Z,102537.28
2022-12-28T10:24:29.888Z,102559.03
2022-12-28T10:29:18.974Z,102545.78
2022-12-28T10:34:20.334Z,102527.50
2022-12-28T10:39:31.040Z,102521.16
2022-12-28T10:44:40.386Z,102542.47
2022-12-28T10:50:02.768Z,102497.06
2022-12-28T10:55:29.935Z,102454.22
2022-12-28T11:00:27.298Z,102519.72
2022-12-28T11:05:25.846Z,102489.06
2022-12-28T11:10:28.026Z,102478.38
2022-12-28T11:15:28.313Z,102494.78
2022-12-28T11:20:33.169Z,102425.22
2022-12-28T11:25:36.821Z,102476.03
2022-12-28T11:30:34.267Z,102466.34
2022-12-28T11:35:35.790Z,102446.28
2022-12-28T11:40:52.648Z,102440.25
2022-12-28T11:45:52.205Z,102396.34
2022-12-28T11:51:07.480Z,102440.13
2022-12-28T11:56:10.384Z,102436.50
2022-12-28T12:01:09.387Z,102442.44
2022-12-28T12:06:06.932Z,102429.50
2022-12-28T12:11:32.563Z,102454.41
2022-12-28T12:16:38.535Z,102422.63
2022-12-28T12:21:39.592Z,102448.97
2022-12-28T12:26:44.221Z,102444.19
2022-12-28T12:31:46.912Z,102378.94
2022-12-28T12:37:31.246Z,102418.00
2022-12-28T12:42:39.481Z,102341.56
2022-12-28T12:47:56.061Z,102382.97
2022-12-28T12:53:06.310Z,102436.16
2022-12-28T12:58:14.994Z,102440.97
2022-12-28T13:03:41.785Z,102442.56
2022-12-28T13:08:47.062Z,102439.88
2022-12-28T13:13:53.803Z,102409.28
2022-12-28T13:18:56.787Z,102440.47
2022-12-28T13:23:55.163Z,102388.13
2022-12-28T13:28:58.613Z,102370.56
2022-12-28T13:33:57.736Z,102435.78
2022-12-28T13:39:19.440Z,102411.28
2022-12-28T13:44:39.663Z,102403.88
2022-12-28T13:49:42.424Z,102399.97
2022-12-28T13:54:44.858Z,102416.56
2022-12-28T13:59:42.736Z,102355.72
2022-12-28T14:04:52.293Z,102350.06
2022-12-28T14:09:52.758Z,102384.16
2022-12-28T14:14:51.299Z,102419.19
2022-12-28T14:19:48.684Z,102429.25
2022-12-28T14:25:02.987Z,102427.84
2022-12-28T14:30:01.775Z,102394.63
2022-12-28T14:35:01.413Z,102402.25
2022-12-28T14:40:06.937Z,102439.81
2022-12-28T14:45:22.265Z,102439.38
2022-12-28T14:50:24.923Z,102415.75
2022-12-28T14:55:34.270Z,102455.84
2022-12-28T15:00:36.726Z,102439.69
2022-12-28T15:05:45.146Z,102377.72
2022-12-28T15:10:49.378Z,102400.59
2022-12-28T15:15:54.417Z,102442.44
2022-12-28T15:20:52.259Z,102446.94
2022-12-28T15:25:50.636Z,102426.44
2022-12-28T15:30:50.543Z,102444.00
2022-12-28T15:35:52.640Z,102407.78
2022-12-28T15:40:54.661Z,102421.97
2022-12-28T15:45:55.851Z,102402.22
2022-12-28T15:50:53.408Z,102445.59
2022-12-28T15:56:00.869Z,102389.47
2022-12-28T16:00:58.063Z,102466.88
2022-12-28T16:06:05.526Z,102352.63
2022-12-28T16:11:13.937Z,102390.00
2022-12-28T16:16:14.318Z,102368.34
2022-12-28T16:21:12.412Z,102445.56
2022-12-28T16:26:11.634Z,102421.38
2022-12-28T16:31:21.916Z,102430.19
2022-12-28T16:36:21.965Z,102443.28
2022-12-28T16:41:33.009Z,102410.53
2022-12-28T16:46:34.516Z,102416.72
2022-12-28T16:51:34.953Z,102452.28
2022-12-28T16:56:32.694Z,102363.19
2022-12-28T17:01:31.380Z,102431.72
2022-12-28T17:06:28.421Z,102414.47
2022-12-28T17:11:25.982Z,102383.34
2022-12-28T17:16:29.372Z,102445.81
2022-12-28T17:21:26.382Z,102457.13
2022-12-28T17:26:25.855Z,102445.91
2022-12-28T17:31:24.859Z,102406.97
2022-12-28T17:36:22.225Z,102446.91
2022-12-28T17:41:23.061Z,102408.03
2022-12-28T17:46:22.615Z,102436.69
2022-12-28T17:51:26.114Z,102444.53
2022-12-28T17:56:23.377Z,102340.47
2022-12-28T18:01:21.436Z,102457.56
2022-12-28T18:06:19.627Z,102435.94
2022-12-28T18:11:17.032Z,102422.19
2022-12-28T18:16:17.039Z,102468.19
2022-12-28T18:21:21.102Z,102461.31
2022-12-28T18:26:29.187Z,102405.81
2022-12-28T18:31:29.285Z,102373.69
2022-12-28T18:36:28.778Z,102434.44
2022-12-28T18:41:32.074Z,102444.94
2022-12-28T18:46:31.878Z,102457.13
2022-12-28T18:51:29.226Z,102429.38
2022-12-28T18:56:31.844Z,102422.44
2022-12-28T19:06:53.931Z,102474.56
2022-12-28T19:11:52.564Z,102476.34
2022-12-28T19:16:52.966Z,102482.44
2022-12-28T19:21:58.911Z,102489.44
2022-12-28T19:26:57.359Z,102433.84
2022-12-28T19:31:55.236Z,102424.31
2022-12-28T19:36:52.406Z,102470.34
2022-12-28T19:41:59.968Z,102398.28
2022-12-28T19:47:01.476Z,102376.56
2022-12-28T19:52:02.747Z,102396.53
2022-12-28T19:56:59.847Z,102453.88
2022-12-28T20:01:57.217Z,102388.78
2022-12-28T20:06:56.589Z,102456.50
2022-12-28T20:11:53.810Z,102425.22
2022-12-28T20:16:51.727Z,102449.53
2022-12-28T20:21:49.500Z,102472.97
2022-12-28T20:26:49.822Z,102483.38
2022-12-28T20:31:51.641Z,102459.94
2022-12-28T20:36:48.914Z,102483.38
2022-12-28T20:42:08.833Z,102481.66
2022-12-28T20:47:05.821Z,102455.63
2022-12-28T20:52:02.947Z,102444.31
2022-12-28T20:57:05.061Z,102473.00
2022-12-28T21:02:06.248Z,102484.28
2022-12-28T21:07:06.708Z,102394.88
2022-12-28T21:12:05.304Z,102351.47
2022-12-28T21:17:03.744Z,102482.59
2022-12-28T21:22:03.591Z,102407.91
2022-12-28T21:27:02.787Z,102447.84
2022-12-28T21:32:00.525Z,102468.69
2022-12-28T21:37:17.812Z,102442.63
2022-12-28T21:42:14.765Z,102415.72
2022-12-28T21:47:12.353Z,102465.25
2022-12-28T21:52:09.380Z,102433.97
2022-12-28T21:57:06.310Z,102475.66
2022-12-28T22:02:29.821Z,102463.50
2022-12-28T22:07:28.311Z,102352.34
2022-12-28T22:12:35.577Z,102427.03
2022-12-28T22:17:32.597Z,102437.44
2022-12-28T22:22:30.225Z,102328.94
2022-12-28T22:27:27.111Z,102405.28
2022-12-28T22:32:24.108Z,102433.97
2022-12-28T22:37:21.074Z,102430.50
2022-12-28T22:42:18.637Z,102368.84
2022-12-28T22:47:15.633Z,102374.91
2022-12-28T22:52:12.836Z,102291.59
2022-12-28T22:57:09.684Z,102409.66
2022-12-28T23:02:07.538Z,102341.06
2022-12-28T23:07:04.861Z,102366.22
2022-12-28T23:12:02.149Z,102375.78
2022-12-28T23:16:59.397Z,102392.28
2022-12-28T23:22:29.625Z,102328.03
2022-12-28T23:27:29.612Z,102359.28
2022-12-28T23:32:26.520Z,102340.19
2022-12-28T23:37:24.254Z,102282.91
2022-12-28T23:42:21.447Z,102354.97
2022-12-28T23:47:19.478Z,102366.22
2022-12-28T23:52:19.678Z,102375.78
2022-12-28T23:57:22.205Z,102339.31
